Time;durP1;ratioP1;P1;durP2;ratioP2;P2;SDS_P1;SDS_P2;PMS_P1;PMS_P2;Temp;Humidity;BMP_temperature;BMP_pressure;BME280_temperature;BME280_humidity;BME280_pressure;Samples;Min_cycle;Max_cycle;Signal;HPM_P1;HPM_P2
2022/11/30 00:01:36;;;;;;;10.45;7.50;;;;;;;15.84;45.30;93441.91;5069025;28;20040;-85
2022/11/30 00:04:02;;;;;;;8.55;6.43;;;;;;;15.87;45.33;93444.41;5062281;28;20037;-83
2022/11/30 00:06:27;;;;;;;10.15;6.35;;;;;;;15.85;45.49;93448.84;5040673;28;20028;-84
2022/11/30 00:08:54;;;;;;;10.75;7.15;;;;;;;15.86;45.43;93433.97;5038119;28;20036;-84
2022/11/30 00:11:20;;;;;;;9.40;7.05;;;;;;;15.87;45.46;93444.41;5017949;28;20033;-83
2022/11/30 00:13:46;;;;;;;9.35;7.05;;;;;;;15.87;45.39;93446.38;5022976;28;20041;-84
2022/11/30 00:16:11;;;;;;;10.63;7.05;;;;;;;15.85;45.66;93429.75;5044533;28;20089;-83
2022/11/30 00:18:36;;;;;;;10.07;7.13;;;;;;;15.86;45.65;93431.25;5025313;28;20037;-84
2022/11/30 00:21:03;;;;;;;9.25;6.72;;;;;;;15.81;45.75;93442.88;5032596;28;20029;-84
2022/11/30 00:23:32;;;;;;;9.68;6.95;;;;;;;15.86;45.58;93434.72;5015769;28;20047;-83
2022/11/30 00:26:04;;;;;;;11.35;6.85;;;;;;;15.83;45.81;93432.97;5015223;28;20358;-83
2022/11/30 00:28:30;;;;;;;8.45;6.40;;;;;;;15.83;45.58;93432.97;5030530;28;20036;-85
2022/11/30 00:30:58;;;;;;;9.27;6.22;;;;;;;15.81;45.37;93438.19;5049010;28;20040;-84
2022/11/30 00:33:23;;;;;;;11.25;6.95;;;;;;;15.85;45.79;93430.50;5065915;28;20040;-85
2022/11/30 00:36:00;;;;;;;9.88;6.18;;;;;;;15.84;45.39;93437.19;5068854;28;20047;-84
2022/11/30 00:38:25;;;;;;;9.77;6.78;;;;;;;15.83;45.35;93437.69;5065741;28;20731;-85
2022/11/30 00:40:51;;;;;;;9.55;6.18;;;;;;;15.85;45.25;93435.97;5063657;28;20040;-84
2022/11/30 00:43:16;;;;;;;8.90;6.30;;;;;;;15.83;45.57;93435.72;5031044;28;20098;-83
2022/11/30 00:45:41;;;;;;;9.27;5.80;;;;;;;15.84;45.40;93433.72;5043563;28;20518;-84
2022/11/30 00:48:07;;;;;;;9.43;6.22;;;;;;;15.82;45.25;93441.66;5021997;28;20037;-84
2022/11/30 00:50:32;;;;;;;8.75;6.60;;;;;;;15.81;45.29;93438.19;5044194;28;20026;-85
2022/11/30 00:52:58;;;;;;;8.52;5.80;;;;;;;15.88;45.52;93439.69;5035679;28;20499;-84
2022/11/30 00:55:23;;;;;;;7.95;6.10;;;;;;;15.85;45.55;93440.66;5010615;28;20107;-83
2022/11/30 00:57:48;;;;;;;9.52;5.93;;;;;;;15.86;45.33;93451.09;5018955;28;20411;-85
2022/11/30 01:00:14;;;;;;;7.38;5.72;;;;;;;15.85;45.38;93448.84;4994093;28;20044;-84
2022/11/30 01:02:39;;;;;;;9.20;6.85;;;;;;;15.86;45.40;93445.63;5003318;28;20040;-84
2022/11/30 01:05:05;;;;;;;7.90;5.63;;;;;;;15.84;45.41;93450.81;5030097;28;20542;-84
2022/11/30 01:07:30;;;;;;;8.07;6.00;;;;;;;15.81;45.38;93459.97;5026226;28;20068;-85
2022/11/30 01:09:56;;;;;;;9.00;5.70;;;;;;;15.81;45.85;93457.25;5011307;28;20041;-85
2022/11/30 01:12:21;;;;;;;8.60;5.68;;;;;;;15.83;45.63;93454.03;5044450;28;20060;-84
2022/11/30 01:14:46;;;;;;;7.80;5.60;;;;;;;15.85;45.57;93454.28;5062750;28;20040;-84
2022/11/30 01:17:12;;;;;;;7.50;5.40;;;;;;;15.82;45.76;93450.56;5040836;28;20101;-84
2022/11/30 01:19:37;;;;;;;7.25;5.63;;;;;;;15.83;45.28;93460.25;4996420;28;20048;-83
2022/11/30 01:22:03;;;;;;;9.68;5.85;;;;;;;15.86;45.13;93461.25;5027714;28;20036;-85
2022/11/30 01:24:28;;;;;;;7.60;5.28;;;;;;;15.87;45.26;93451.81;5032772;28;20052;-84
2022/11/30 01:26:53;;;;;;;7.93;5.43;;;;;;;15.86;45.49;93461.97;5031967;28;20530;-84
2022/11/30 01:29:19;;;;;;;7.93;5.47;;;;;;;15.82;45.17;93464.19;5020677;28;20325;-86
2022/11/30 01:31:44;;;;;;;5.95;4.57;;;;;;;15.85;45.26;93470.66;5031871;28;20040;-84
2022/11/30 01:34:10;;;;;;;7.15;5.15;;;;;;;15.86;45.55;93472.16;5070893;28;20111;-85
2022/11/30 01:36:37;;;;;;;7.82;5.00;;;;;;;15.84;45.17;93466.44;5054657;28;20032;-84
2022/11/30 01:39:05;;;;;;;10.30;6.03;;;;;;;15.84;45.29;93460.97;5033204;28;20036;-84
2022/11/30 01:41:31;;;;;;;9.07;6.15;;;;;;;15.82;45.43;93460.72;5028752;28;20037;-85
2022/11/30 01:44:17;;;;;;;6.88;4.85;;;;;;;15.82;45.44;93463.47;5052677;28;20047;-83
2022/11/30 01:47:02;;;;;;;7.30;5.07;;;;;;;15.80;45.42;93463.97;5063226;28;20098;-84
2022/11/30 01:49:29;;;;;;;7.18;5.32;;;;;;;15.85;45.25;93467.94;5051655;28;20119;-84
2022/11/30 01:51:59;;;;;;;9.70;5.43;;;;;;;15.83;45.62;93459.50;5046036;28;20491;-84
2022/11/30 01:54:41;;;;;;;7.63;5.38;;;;;;;15.86;45.59;93463.97;5051446;28;20526;-83
2022/11/30 01:57:15;;;;;;;6.82;4.82;;;;;;;15.83;45.26;93457.50;5035710;28;20094;-85
2022/11/30 01:59:41;;;;;;;7.65;5.85;;;;;;;15.82;45.75;93455.28;5050436;28;20036;-84
2022/11/30 02:02:06;;;;;;;6.78;4.60;;;;;;;15.82;45.42;93455.28;5084194;28;20573;-85
2022/11/30 02:04:34;;;;;;;6.95;4.72;;;;;;;15.83;45.28;93465.69;5068135;28;20047;-84
2022/11/30 02:07:00;;;;;;;6.32;4.40;;;;;;;15.81;45.11;93462.72;5045239;28;20035;-84
2022/11/30 02:09:25;;;;;;;7.35;5.30;;;;;;;15.80;45.55;93463.97;5071388;28;20039;-84
2022/11/30 02:11:51;;;;;;;5.93;4.55;;;;;;;15.82;45.18;93464.19;5071460;28;20028;-83
2022/11/30 02:14:38;;;;;;;6.30;4.78;;;;;;;15.84;45.34;93464.47;5087453;28;20487;-84
2022/11/30 02:17:16;;;;;;;9.60;4.68;;;;;;;15.87;45.17;93462.72;5078253;28;20474;-84
2022/11/30 02:19:54;;;;;;;6.95;4.95;;;;;;;15.85;45.16;93463.22;5069390;28;20513;-86
2022/11/30 02:22:28;;;;;;;8.32;5.03;;;;;;;15.82;45.50;93469.66;5060543;28;20044;-83
2022/11/30 02:25:13;;;;;;;6.22;4.60;;;;;;;15.83;45.56;93459.50;5069765;28;20170;-84
2022/11/30 02:28:06;;;;;;;7.60;5.22;;;;;;;15.82;45.67;93471.63;5049207;28;20054;-86
2022/11/30 02:30:32;;;;;;;6.53;4.53;;;;;;;15.82;45.11;93477.84;5070818;28;20058;-83
2022/11/30 02:33:06;;;;;;;6.85;4.82;;;;;;;15.81;45.30;93468.16;5087985;28;20055;-84
2022/11/30 02:35:33;;;;;;;7.30;4.72;;;;;;;15.84;45.42;93463.72;5070570;28;20036;-84
2022/11/30 02:37:58;;;;;;;7.55;4.90;;;;;;;15.82;45.44;93464.19;5087609;28;20039;-83
2022/11/30 02:40:24;;;;;;;6.68;4.70;;;;;;;15.82;45.48;93458.00;5068121;28;20483;-83
2022/11/30 02:42:50;;;;;;;5.35;4.32;;;;;;;15.81;45.29;93472.88;5035026;28;20402;-86
2022/11/30 02:45:17;;;;;;;7.18;4.85;;;;;;;15.81;45.39;93472.88;5074355;28;20043;-84
2022/11/30 02:47:46;;;;;;;6.95;4.22;;;;;;;15.81;45.68;93465.44;5083895;28;20109;-84
2022/11/30 02:50:21;;;;;;;6.43;4.90;;;;;;;15.82;45.44;93458.00;5042446;28;20538;-84
2022/11/30 02:52:48;;;;;;;5.20;4.25;;;;;;;15.80;45.60;93463.22;5053788;28;20482;-84
2022/11/30 02:55:15;;;;;;;5.40;4.22;;;;;;;15.77;45.29;93460.25;5070519;28;20398;-84
2022/11/30 02:57:40;;;;;;;6.75;4.53;;;;;;;15.79;45.35;93451.59;5069742;28;20437;-84
2022/11/30 03:00:07;;;;;;;6.60;5.20;;;;;;;15.79;45.59;93459.75;5076330;28;20061;-84
2022/11/30 03:02:32;;;;;;;6.20;4.25;;;;;;;15.81;45.56;93456.50;5068062;28;20037;-83
2022/11/30 03:04:58;;;;;;;5.47;4.05;;;;;;;15.79;45.37;93457.03;5069948;28;20039;-84
2022/11/30 03:07:23;;;;;;;6.18;4.45;;;;;;;15.81;45.45;93459.97;5086921;28;20129;-85
2022/11/30 03:09:49;;;;;;;7.32;4.13;;;;;;;15.81;45.22;93461.97;5050733;28;20415;-84
2022/11/30 03:12:14;;;;;;;6.05;4.45;;;;;;;15.80;45.58;93460.50;5065935;28;20498;-83
2022/11/30 03:14:39;;;;;;;7.47;4.60;;;;;;;15.77;45.23;93460.25;5067157;28;20032;-85
2022/11/30 03:17:05;;;;;;;7.13;3.80;;;;;;;15.84;45.27;93458.25;5050412;28;20082;-83
2022/11/30 03:19:31;;;;;;;7.80;4.40;;;;;;;15.81;45.51;93451.81;5066878;28;20036;-83
2022/11/30 03:21:57;;;;;;;5.38;3.75;;;;;;;15.82;45.23;93458.00;5087032;28;20410;-83
2022/11/30 03:24:22;;;;;;;7.82;4.93;;;;;;;15.82;45.43;93458.00;5049057;28;20506;-84
2022/11/30 03:26:48;;;;;;;6.32;4.32;;;;;;;15.80;45.70;93458.53;5049899;28;20048;-85
2022/11/30 03:29:13;;;;;;;6.13;3.90;;;;;;;15.82;45.18;93452.56;5073703;28;20042;-84
2022/11/30 03:31:39;;;;;;;5.90;4.40;;;;;;;15.85;45.47;93449.59;5030838;28;20037;-84
2022/11/30 03:34:04;;;;;;;5.95;4.20;;;;;;;15.77;45.36;93445.88;5035338;28;20036;-84
2022/11/30 03:36:30;;;;;;;5.50;3.97;;;;;;;15.81;45.43;93454.53;5053752;28;20380;-83
2022/11/30 03:38:55;;;;;;;6.95;4.35;;;;;;;15.77;45.55;93451.31;5048254;28;20074;-84
2022/11/30 03:41:20;;;;;;;5.22;4.07;;;;;;;15.81;45.42;93448.34;5030022;28;20032;-84
2022/11/30 03:43:46;;;;;;;6.38;4.78;;;;;;;15.80;45.22;93449.59;5031356;28;20516;-83
2022/11/30 03:46:11;;;;;;;5.88;4.07;;;;;;;15.77;45.29;93448.59;5027465;28;20137;-83
2022/11/30 03:48:37;;;;;;;6.22;4.13;;;;;;;15.79;45.51;93451.59;5028353;28;20409;-83
2022/11/30 03:51:03;;;;;;;5.32;3.88;;;;;;;15.77;45.08;93451.31;5044515;28;20367;-85
2022/11/30 03:53:28;;;;;;;6.82;4.13;;;;;;;15.80;45.29;93457.78;5014137;28;20049;-83
2022/11/30 03:55:55;;;;;;;5.15;3.90;;;;;;;15.77;45.18;93454.06;5044142;28;20037;-86
2022/11/30 03:58:21;;;;;;;6.47;4.47;;;;;;;15.75;45.31;93446.38;5011039;28;20499;-84
2022/11/30 04:00:47;;;;;;;5.82;4.00;;;;;;;15.79;45.28;93459.75;5035281;28;20059;-84
2022/11/30 04:03:12;;;;;;;6.15;4.05;;;;;;;15.76;45.33;93460.75;5042963;28;20032;-84
2022/11/30 04:05:37;;;;;;;5.68;4.25;;;;;;;15.79;45.13;93461.75;5057112;28;20043;-84
2022/11/30 04:08:03;;;;;;;5.35;3.60;;;;;;;15.77;45.38;93465.69;5083473;28;20028;-86
2022/11/30 04:10:28;;;;;;;5.57;3.75;;;;;;;15.78;45.19;93458.28;5054302;28;20138;-83
2022/11/30 04:12:54;;;;;;;6.22;4.20;;;;;;;15.81;45.29;93467.41;5086407;28;20074;-83
2022/11/30 04:15:19;;;;;;;6.40;4.30;;;;;;;15.75;45.15;93473.63;5085812;28;20029;-86
2022/11/30 04:17:45;;;;;;;5.32;3.45;;;;;;;15.76;45.33;93477.09;5084342;28;20486;-83
2022/11/30 04:20:10;;;;;;;6.82;4.10;;;;;;;15.76;45.00;93474.38;5062679;28;20048;-84
2022/11/30 04:22:36;;;;;;;7.72;4.22;;;;;;;15.77;45.21;93471.16;5065702;28;20120;-84
2022/11/30 04:25:01;;;;;;;6.30;4.30;;;;;;;15.73;45.48;93473.38;5065762;28;20040;-83
2022/11/30 04:27:29;;;;;;;6.43;4.13;;;;;;;15.71;45.43;93469.63;5031457;28;20089;-85
2022/11/30 04:29:55;;;;;;;5.45;3.50;;;;;;;15.74;45.61;93482.28;5065575;28;20040;-84
2022/11/30 04:32:20;;;;;;;5.93;3.95;;;;;;;15.73;45.25;93484.28;5046188;28;20408;-83
2022/11/30 04:34:45;;;;;;;5.30;3.88;;;;;;;15.77;45.05;93489.47;5037031;28;20036;-83
2022/11/30 04:37:11;;;;;;;5.28;3.97;;;;;;;15.75;45.58;93481.78;5032198;28;20044;-83
2022/11/30 04:39:36;;;;;;;7.03;4.35;;;;;;;15.76;45.17;93482.53;5078841;28;20048;-84
2022/11/30 04:42:03;;;;;;;6.10;3.90;;;;;;;15.73;45.26;93481.53;5055408;28;20048;-85
2022/11/30 04:44:28;;;;;;;261.42;25.40;;;;;;;15.75;45.58;93483.78;5041096;28;20040;-85
2022/11/30 04:46:54;;;;;;;80.20;11.88;;;;;;;15.80;45.54;93493.97;5047620;28;20028;-83
2022/11/30 04:49:19;;;;;;;20.85;5.28;;;;;;;15.77;45.53;93484.78;5036363;28;20063;-85
2022/11/30 04:51:44;;;;;;;10.15;4.53;;;;;;;15.82;45.44;93490.72;5014556;28;20488;-85
2022/11/30 04:54:12;;;;;;;15.63;5.07;;;;;;;15.81;45.55;93486.50;5035705;28;20119;-86
2022/11/30 04:56:37;;;;;;;12.05;4.28;;;;;;;15.83;45.48;93492.19;5011199;28;20033;-85
2022/11/30 04:59:03;;;;;;;6.65;3.85;;;;;;;15.84;45.28;93493.69;5006617;28;20043;-85
2022/11/30 05:01:29;;;;;;;11.27;4.15;;;;;;;15.81;45.04;93498.16;5027648;28;20059;-83
2022/11/30 05:03:55;;;;;;;7.93;3.92;;;;;;;15.82;45.03;93493.44;5039260;28;20036;-83
2022/11/30 05:06:21;;;;;;;11.45;4.03;;;;;;;15.82;45.03;93494.19;5045274;28;20090;-84
2022/11/30 05:08:46;;;;;;;6.97;3.88;;;;;;;15.83;45.10;93489.47;5047038;28;20037;-85
2022/11/30 05:11:12;;;;;;;7.40;3.83;;;;;;;15.80;45.48;93487.75;5014165;28;20116;-84
2022/11/30 05:13:37;;;;;;;5.53;3.85;;;;;;;15.79;45.39;93489.75;5034554;28;20048;-83
2022/11/30 05:16:03;;;;;;;7.32;3.85;;;;;;;15.78;45.26;93493.69;5067978;28;20052;-86
2022/11/30 05:18:30;;;;;;;9.68;4.00;;;;;;;15.80;44.91;93485.03;5073800;28;20557;-84
2022/11/30 05:20:55;;;;;;;5.80;4.03;;;;;;;15.76;45.34;93499.63;5071154;28;20042;-84
2022/11/30 05:23:21;;;;;;;5.80;3.45;;;;;;;15.75;44.87;93492.69;5065629;28;20052;-85
2022/11/30 05:25:46;;;;;;;6.70;3.58;;;;;;;15.76;45.41;93488.00;5056608;28;20470;-84
2022/11/30 05:28:12;;;;;;;7.95;4.15;;;;;;;15.77;44.96;93497.66;5062190;28;20090;-84
2022/11/30 05:30:39;;;;;;;7.15;4.10;;;;;;;15.83;45.28;93503.09;5073829;28;20379;-84
2022/11/30 05:33:05;;;;;;;7.28;3.45;;;;;;;15.86;45.19;93511.06;5077684;28;20127;-84
2022/11/30 05:35:30;;;;;;;10.02;3.55;;;;;;;15.86;45.08;93511.06;5053684;28;20043;-85
2022/11/30 05:37:55;;;;;;;23.25;4.88;;;;;;;15.90;45.38;93508.09;5070664;28;20036;-84
2022/11/30 05:40:21;;;;;;;7.70;3.92;;;;;;;15.93;45.61;93512.56;5070674;28;20102;-83
2022/11/30 05:42:46;;;;;;;5.88;3.80;;;;;;;15.95;45.57;93516.28;5074321;28;20036;-85
2022/11/30 05:45:12;;;;;;;6.78;3.78;;;;;;;15.96;45.50;93506.88;5066514;28;20624;-86
2022/11/30 05:47:37;;;;;;;19.42;4.00;;;;;;;15.95;45.32;93505.38;5083069;28;20032;-87
2022/11/30 05:50:03;;;;;;;10.70;3.85;;;;;;;15.93;45.21;93507.84;5054020;28;20129;-85
2022/11/30 05:52:29;;;;;;;11.07;3.50;;;;;;;15.89;44.99;93512.06;5069691;28;20053;-85
2022/11/30 05:54:54;;;;;;;10.65;3.85;;;;;;;15.94;45.04;93517.53;5081772;28;20043;-84
2022/11/30 05:57:20;;;;;;;28.55;8.77;;;;;;;15.83;44.74;93522.19;5065165;28;20078;-86
2022/11/30 05:59:45;;;;;;;31.95;11.70;;;;;;;15.83;44.07;93520.22;5065889;28;20049;-87
2022/11/30 06:02:11;;;;;;;37.30;15.00;;;;;;;15.85;44.37;93527.91;5064949;28;20060;-85
2022/11/30 06:04:36;;;;;;;32.92;11.93;;;;;;;15.71;42.33;93524.88;5070655;28;20040;-84
2022/11/30 06:07:03;;;;;;;32.63;11.75;;;;;;;15.71;43.50;93524.88;5059844;28;20497;-85
2022/11/30 06:09:31;;;;;;;74.25;30.48;;;;;;;15.74;43.81;93525.91;5053908;28;20458;-88
2022/11/30 06:11:57;;;;;;;83.57;32.60;;;;;;;15.75;44.09;93535.56;5052656;28;20032;-85
2022/11/30 06:14:22;;;;;;;88.13;32.50;;;;;;;15.69;41.67;93527.34;5067827;28;20046;-85
2022/11/30 06:16:47;;;;;;;90.57;34.70;;;;;;;15.68;41.74;93541.47;5084684;28;20070;-85
2022/11/30 06:19:13;;;;;;;90.80;35.40;;;;;;;15.69;42.20;93535.53;5068130;28;20113;-83
2022/11/30 06:21:38;;;;;;;104.70;40.50;;;;;;;15.69;42.39;93530.09;5035246;28;20036;-86
2022/11/30 06:24:04;;;;;;;129.48;46.80;;;;;;;15.73;43.62;93536.06;5053361;28;21042;-86
2022/11/30 06:26:29;;;;;;;110.18;43.72;;;;;;;15.69;42.74;93542.97;5050867;28;20032;-85
2022/11/30 06:28:55;;;;;;;102.07;42.50;;;;;;;15.65;42.78;93539.72;5081234;28;20096;-83
2022/11/30 06:31:20;;;;;;;108.65;47.20;;;;;;;15.66;42.81;93541.97;5071841;28;20044;-86
2022/11/30 06:33:46;;;;;;;106.45;44.90;;;;;;;15.68;42.65;93538.75;5082609;28;20375;-86
2022/11/30 06:36:11;;;;;;;117.05;42.13;;;;;;;15.69;43.38;93546.44;5065619;28;20750;-87
2022/11/30 06:38:36;;;;;;;93.60;40.80;;;;;;;15.69;42.91;93548.41;5052218;28;20040;-83
2022/11/30 06:41:07;;;;;;;79.22;34.17;;;;;;;15.66;42.49;93541.22;5065177;28;20446;-86
2022/11/30 06:43:36;;;;;;;84.18;35.47;;;;;;;15.64;42.99;93543.69;5048466;28;20043;-85
2022/11/30 06:46:02;;;;;;;86.05;35.90;;;;;;;15.72;42.91;93542.00;5057596;28;20033;-87
2022/11/30 06:48:27;;;;;;;99.70;37.28;;;;;;;15.69;43.21;93540.97;5068696;28;20494;-85
2022/11/30 06:50:53;;;;;;;83.07;33.58;;;;;;;15.71;43.51;93546.69;5046225;28;20072;-86
2022/11/30 06:53:19;;;;;;;112.65;38.17;;;;;;;15.72;43.88;93540.00;5076869;28;20032;-85
2022/11/30 06:55:44;;;;;;;82.25;34.40;;;;;;;15.71;43.17;93537.78;5060497;28;20072;-85
2022/11/30 06:58:11;;;;;;;80.55;31.23;;;;;;;15.71;43.38;93538.50;5064545;28;20036;-85
2022/11/30 07:00:36;;;;;;;86.90;34.72;;;;;;;15.75;43.64;93546.47;5065202;28;20047;-86
2022/11/30 07:03:02;;;;;;;78.35;31.30;;;;;;;15.75;43.38;93549.94;5060381;28;20032;-89
2022/11/30 07:05:31;;;;;;;71.30;29.77;;;;;;;15.76;43.75;93542.50;5056502;28;20044;-91
2022/11/30 07:07:57;;;;;;;66.28;28.08;;;;;;;15.85;44.47;93545.00;5065605;28;20523;-86
2022/11/30 07:10:22;;;;;;;75.63;28.40;;;;;;;15.91;44.43;93539.56;5060590;28;20169;-83
2022/11/30 07:12:48;;;;;;;89.97;29.42;;;;;;;15.92;44.69;93550.00;5067552;28;20031;-82
2022/11/30 07:15:14;;;;;;;56.05;25.42;;;;;;;15.95;44.35;93561.91;5059180;28;20074;-87
2022/11/30 07:17:39;;;;;;;64.07;30.10;;;;;;;16.03;44.58;93555.47;5083602;28;20048;-87
2022/11/30 07:20:05;;;;;;;54.20;25.52;;;;;;;16.01;43.81;93554.47;5067731;28;20043;-84
2022/11/30 07:22:31;;;;;;;57.67;25.50;;;;;;;16.02;43.63;93553.25;5065770;28;20036;-85
2022/11/30 07:27:40;;;;;;;54.67;25.58;;;;;;;15.94;43.38;93552.22;5066697;28;20047;-89
2022/11/30 07:30:06;;;;;;;53.88;25.23;;;;;;;15.99;43.60;93554.22;5066337;28;20479;-87
2022/11/30 07:32:32;;;;;;;48.72;22.85;;;;;;;15.96;43.60;93558.69;5061461;28;20424;-88
2022/11/30 07:34:57;;;;;;;46.33;23.10;;;;;;;15.91;43.70;93548.50;5063485;28;20592;-84
2022/11/30 07:37:23;;;;;;;53.53;23.30;;;;;;;15.88;43.19;93554.19;5062329;28;20032;-85
2022/11/30 07:39:48;;;;;;;42.33;18.60;;;;;;;15.81;41.17;93551.91;5057784;28;20043;-87
2022/11/30 07:42:15;;;;;;;39.42;19.60;;;;;;;15.82;41.79;93556.13;5065285;28;20377;-84
2022/11/30 07:44:41;;;;;;;47.78;19.50;;;;;;;15.87;41.72;93547.22;5056437;28;20040;-89
2022/11/30 07:47:06;;;;;;;44.75;20.17;;;;;;;15.82;42.46;93554.16;5080286;28;20054;-85
2022/11/30 07:49:32;;;;;;;49.92;20.38;;;;;;;15.81;42.80;93551.91;5063178;28;20404;-84
2022/11/30 07:51:57;;;;;;;43.42;20.02;;;;;;;15.80;43.57;93553.19;5036371;28;20439;-83
2022/11/30 07:54:23;;;;;;;40.55;19.40;;;;;;;15.82;43.58;93551.44;5076670;28;20044;-89
2022/11/30 07:56:48;;;;;;;35.70;19.38;;;;;;;15.82;43.82;93556.13;5050470;28;20028;-87
2022/11/30 07:59:14;;;;;;;43.17;18.13;;;;;;;15.83;43.51;93563.81;5042461;28;20399;-89
2022/11/30 08:01:39;;;;;;;40.08;18.67;;;;;;;15.86;43.73;93562.09;5037331;28;20094;-84
2022/11/30 08:04:04;;;;;;;46.72;20.30;;;;;;;15.83;43.68;93554.91;5056247;28;20120;-85
2022/11/30 08:06:30;;;;;;;43.35;16.85;;;;;;;15.85;43.94;93555.91;5066806;28;20044;-83
2022/11/30 08:08:57;;;;;;;47.08;18.90;;;;;;;15.84;43.97;93554.41;5064660;28;20041;-83
2022/11/30 08:11:25;;;;;;;50.00;19.35;;;;;;;15.84;44.11;93573.50;5069626;28;20051;-86
2022/11/30 08:13:50;;;;;;;59.65;19.70;;;;;;;15.89;43.62;93572.78;5044387;28;20055;-83
2022/11/30 08:16:17;;;;;;;47.33;19.80;;;;;;;15.90;43.83;93573.53;5061047;28;20117;-89
2022/11/30 08:18:43;;;;;;;51.15;19.50;;;;;;;15.94;43.66;93579.50;5046487;28;20467;-82
2022/11/30 08:21:09;;;;;;;65.10;20.90;;;;;;;15.95;44.14;93581.72;5054793;28;20075;-81
2022/11/30 08:23:38;;;;;;;76.00;21.85;;;;;;;15.93;43.72;93581.47;5066475;28;20530;-83
2022/11/30 08:26:20;;;;;;;66.05;21.95;;;;;;;15.93;43.58;93580.72;5054279;28;20131;-82
2022/11/30 08:28:47;;;;;;;80.32;24.23;;;;;;;15.93;43.83;93584.19;5069514;28;20143;-83
2022/11/30 08:31:20;;;;;;;67.82;22.90;;;;;;;15.94;43.62;93593.88;5069165;28;20024;-84
2022/11/30 08:33:46;;;;;;;80.28;24.45;;;;;;;15.93;43.87;93586.91;5086719;28;20048;-83
2022/11/30 08:36:15;;;;;;;79.78;23.60;;;;;;;15.94;43.80;93593.13;5067688;28;20046;-86
2022/11/30 08:38:41;;;;;;;75.78;23.83;;;;;;;15.95;43.76;93594.59;5044783;28;20044;-84
2022/11/30 08:41:07;;;;;;;70.20;23.20;;;;;;;15.94;43.68;93591.13;5062539;28;20090;-83
2022/11/30 08:43:33;;;;;;;88.20;23.73;;;;;;;15.97;43.65;93603.03;5071060;28;20052;-83
2022/11/30 08:45:58;;;;;;;83.30;24.83;;;;;;;15.97;43.56;93592.88;5060119;28;20055;-84
2022/11/30 08:48:23;;;;;;;94.93;21.83;;;;;;;15.98;43.65;93590.91;5048019;28;20394;-83
2022/11/30 08:50:49;;;;;;;84.63;23.98;;;;;;;15.97;43.43;93590.16;5068892;28;20032;-84
2022/11/30 08:53:14;;;;;;;83.07;24.98;;;;;;;15.98;43.51;93602.56;5080198;28;20048;-83
2022/11/30 08:55:40;;;;;;;83.43;24.90;;;;;;;15.99;43.45;93598.59;5077822;28;20410;-84
2022/11/30 08:58:05;;;;;;;84.00;28.33;;;;;;;15.99;43.89;93593.16;5062770;28;20094;-84
2022/11/30 09:00:31;;;;;;;93.65;30.98;;;;;;;15.99;43.67;93603.31;5084810;28;20040;-85
2022/11/30 09:02:56;;;;;;;117.43;36.75;;;;;;;15.98;44.05;93599.84;5089728;28;20039;-86
2022/11/30 09:05:22;;;;;;;88.07;34.95;;;;;;;16.00;43.32;93608.28;5078526;28;20636;-84
2022/11/30 09:07:47;;;;;;;92.10;34.80;;;;;;;16.02;43.81;93613.94;5064873;28;20439;-84
2022/11/30 09:10:13;;;;;;;88.82;33.17;;;;;;;16.02;43.48;93602.34;5061694;28;20045;-85
2022/11/30 09:12:38;;;;;;;88.78;36.35;;;;;;;16.01;43.67;93615.22;5065866;28;20048;-84
2022/11/30 09:15:05;;;;;;;86.75;36.50;;;;;;;16.05;43.59;93618.44;5036663;28;20623;-86
2022/11/30 09:17:30;;;;;;;95.47;37.80;;;;;;;16.06;43.68;93611.75;5038724;28;20490;-86
2022/11/30 09:19:56;;;;;;;80.88;36.25;;;;;;;16.04;43.95;93608.75;5055714;28;20066;-87
2022/11/30 09:22:22;;;;;;;106.95;40.75;;;;;;;16.03;44.07;93609.25;5053261;28;20052;-85
2022/11/30 09:24:47;;;;;;;86.03;35.38;;;;;;;16.05;43.83;93612.22;5056348;28;20036;-85
2022/11/30 09:27:12;;;;;;;89.22;36.88;;;;;;;16.04;43.68;93608.75;5072046;28;20089;-84
2022/11/30 09:29:41;;;;;;;80.13;36.03;;;;;;;16.04;43.49;93611.50;5088217;28;20036;-84
2022/11/30 09:32:07;;;;;;;81.93;36.70;;;;;;;16.01;41.09;93609.75;5041960;28;20055;-86
2022/11/30 09:34:32;;;;;;;76.13;27.73;;;;;;;15.89;40.04;93602.00;5051873;28;20036;-85
2022/11/30 09:36:57;;;;;;;57.03;23.33;;;;;;;15.77;38.82;93610.16;5060047;28;20403;-84
2022/11/30 09:39:23;;;;;;;40.17;17.73;;;;;;;15.62;37.29;93606.09;5048923;28;20430;-85
2022/11/30 09:41:52;;;;;;;54.42;20.30;;;;;;;15.66;38.18;93606.63;5034261;28;20361;-84
2022/11/30 09:44:43;;;;;;;80.93;22.33;;;;;;;15.71;38.27;93600.44;5056898;28;20067;-84
2022/11/30 09:47:26;;;;;;;63.47;22.40;;;;;;;15.74;38.61;93594.78;5072273;28;20090;-85
2022/11/30 09:49:51;;;;;;;85.47;24.30;;;;;;;15.75;38.93;93599.00;5079648;28;20064;-86
2022/11/30 09:52:19;;;;;;;75.60;26.48;;;;;;;15.78;39.51;93597.28;5069695;28;20101;-85
2022/11/30 09:54:46;;;;;;;59.13;22.75;;;;;;;15.84;39.87;93598.03;5066825;28;20494;-85
2022/11/30 09:57:33;;;;;;;61.28;26.58;;;;;;;15.85;40.74;93602.25;5050833;28;20043;-84
2022/11/30 10:00:00;;;;;;;72.82;28.98;;;;;;;15.85;42.00;93599.50;5076896;28;20051;-83
2022/11/30 10:02:29;;;;;;;84.22;29.25;;;;;;;15.88;42.43;93605.97;5082420;28;20088;-84
2022/11/30 10:04:55;;;;;;;91.30;31.02;;;;;;;15.88;42.51;93600.53;5052992;28;20039;-86
2022/11/30 10:07:54;;;;;;;96.13;30.75;;;;;;;15.89;42.27;93604.75;5039312;28;20036;-84
2022/11/30 10:10:46;;;;;;;79.60;29.23;;;;;;;15.91;41.97;93607.72;5084937;28;20068;-85
2022/11/30 10:13:38;;;;;;;68.07;26.83;;;;;;;15.91;42.22;93600.28;5090167;28;20040;-83
2022/11/30 10:16:10;;;;;;;;;;;;;;;15.94;42.27;93598.56;5090294;28;20419;-85
2022/11/30 10:18:46;;;;;;;60.70;24.13;;;;;;;15.91;42.30;93581.22;5089138;28;20023;-85
2022/11/30 10:21:36;;;;;;;65.38;25.33;;;;;;;15.92;42.14;93582.69;5071181;28;20040;-86
2022/11/30 10:24:09;;;;;;;58.05;24.00;;;;;;;15.95;42.27;93580.97;5081299;28;20064;-84
2022/11/30 10:26:37;;;;;;;57.92;23.35;;;;;;;15.94;42.54;93585.69;5065744;28;20036;-85
2022/11/30 10:29:31;;;;;;;60.00;23.25;;;;;;;15.94;42.29;93576.75;5051806;28;20040;-87
2022/11/30 10:31:58;;;;;;;55.53;20.98;;;;;;;15.94;42.53;93576.75;5056620;28;20036;-85
2022/11/30 10:34:27;;;;;;;46.92;22.25;;;;;;;15.97;42.51;93579.25;5051700;28;20051;-85
2022/11/30 10:37:16;;;;;;;68.50;23.45;;;;;;;15.94;42.06;93579.50;5035474;28;20067;-83
2022/11/30 10:39:57;;;;;;;43.35;20.48;;;;;;;15.96;42.40;93572.31;5056648;28;20089;-85
2022/11/30 10:42:30;;;;;;;51.03;19.35;;;;;;;15.96;42.16;93569.59;5071752;28;20051;-86
2022/11/30 10:45:02;;;;;;;46.85;17.25;;;;;;;15.97;42.10;93567.59;5085899;28;20998;-82
2022/11/30 10:47:32;;;;;;;35.92;16.73;;;;;;;15.96;42.30;93555.94;5070772;28;20032;-85
2022/11/30 10:49:58;;;;;;;39.13;17.60;;;;;;;16.00;42.54;93563.91;5069281;28;20043;-88
2022/11/30 10:52:26;;;;;;;47.20;18.90;;;;;;;15.99;42.61;93576.03;5065334;28;20040;-87
2022/11/30 10:54:53;;;;;;;43.20;17.75;;;;;;;15.99;42.69;93565.88;5065988;28;20475;-86
2022/11/30 10:57:18;;;;;;;38.50;17.25;;;;;;;16.03;42.29;93565.63;5052991;28;20655;-85
2022/11/30 10:59:47;;;;;;;39.63;16.67;;;;;;;15.99;42.71;93571.34;5070488;28;20105;-85
2022/11/30 11:02:34;;;;;;;36.03;14.60;;;;;;;16.01;42.61;93562.66;5064805;28;20496;-84
2022/11/30 11:05:11;;;;;;;47.42;16.17;;;;;;;16.00;42.15;93564.66;5077101;28;20040;-85
2022/11/30 11:07:53;;;;;;;38.40;16.08;;;;;;;16.01;42.31;93562.66;5074164;28;20112;-83
2022/11/30 11:10:23;;;;;;;47.30;15.95;;;;;;;16.03;42.07;93565.63;5056624;28;20036;-84
2022/11/30 11:12:51;;;;;;;31.17;15.32;;;;;;;16.00;42.54;93558.44;5059453;28;20044;-85
2022/11/30 11:15:19;;;;;;;32.25;14.32;;;;;;;16.00;42.71;93564.66;5047804;28;20036;-85
2022/11/30 11:17:45;;;;;;;27.75;14.07;;;;;;;16.00;42.25;93559.19;5047394;28;20491;-85
2022/11/30 11:20:31;;;;;;;26.65;11.52;;;;;;;16.02;42.76;93575.06;5057525;28;20077;-84
2022/11/30 11:22:56;;;;;;;29.38;12.70;;;;;;;16.01;42.53;93552.50;5086958;28;20028;-85
2022/11/30 11:25:27;;;;;;;44.55;13.60;;;;;;;15.98;42.55;93567.13;5069204;28;20044;-83
2022/11/30 11:27:53;;;;;;;30.77;12.00;;;;;;;16.00;42.49;93563.91;5046370;28;20127;-85
2022/11/30 11:30:24;;;;;;;27.17;12.45;;;;;;;16.00;42.51;93559.19;5066400;28;20483;-84